Terminal Aerodrome Forecast
Issued by NWS Blacksburg, VA

Current Version | Previous Version | Text Only | Print | Product List | Glossary Off
Versions: 1 2 3 4 5 6 7 8 9 10 11 12 13 14 15 16 17 18 19 20 21 22 23 24 25 26 27 28 29 30 31 32 33 34

111
FTUS41 KRNK 052349
TAFBLF
TAF
KBLF 052349Z 0600/0624 VRB04KT P6SM OVC100
     FM060400 12007KT P6SM OVC050
     FM060600 12008G16KT P6SM -RA OVC035
     FM060800 12011G21KT 4SM -RA SCT005 OVC015
     FM061000 12010G20KT 1SM -RA BR OVC003
     FM062100 13005KT 3SM -DZ BR OVC004=

USA.gov is the U.S. government's official web portal to all federal, state and local government web resources and services.